createdAt,value
2018-06-05T00:00:46.177Z,20.69
2018-06-05T00:03:26.834Z,20.65
2018-06-05T00:06:06.257Z,20.64
2018-06-05T00:08:44.994Z,20.64
2018-06-05T00:11:25.096Z,20.64
2018-06-05T00:14:04.631Z,20.63
2018-06-05T00:16:43.270Z,20.65
2018-06-05T00:19:21.714Z,20.67
2018-06-05T00:22:00.332Z,20.63
2018-06-05T00:24:38.674Z,20.60
2018-06-05T00:27:17.636Z,20.55
2018-06-05T00:29:57.640Z,20.47
2018-06-05T00:32:38.792Z,20.41
2018-06-05T00:35:16.353Z,20.38
2018-06-05T00:37:55.753Z,20.36
2018-06-05T00:40:35.335Z,20.29
2018-06-05T00:43:14.994Z,20.21
2018-06-05T00:45:57.174Z,20.12
2018-06-05T00:48:36.515Z,20.05
2018-06-05T00:51:26.891Z,20.01
2018-06-05T00:54:06.040Z,19.97
2018-06-05T00:56:44.375Z,19.90
2018-06-05T00:59:20.469Z,19.89
2018-06-05T01:01:59.050Z,19.83
2018-06-05T01:04:38.012Z,19.75
2018-06-05T01:07:16.716Z,19.73
2018-06-05T01:09:55.563Z,19.70
2018-06-05T01:12:32.994Z,19.68
2018-06-05T01:15:12.992Z,19.65
2018-06-05T01:17:51.711Z,19.59
2018-06-05T01:20:30.874Z,19.55
2018-06-05T01:23:09.797Z,19.50
2018-06-05T01:25:48.490Z,19.44
2018-06-05T01:28:27.634Z,19.39
2018-06-05T01:31:07.134Z,19.36
2018-06-05T01:33:48.010Z,19.35
2018-06-05T01:36:27.409Z,19.34
2018-06-05T01:39:05.797Z,19.38
2018-06-05T01:41:44.914Z,19.43
2018-06-05T01:44:23.152Z,19.44
2018-06-05T01:47:01.775Z,19.44
2018-06-05T01:49:45.450Z,19.38
2018-06-05T01:52:23.855Z,19.33
2018-06-05T01:55:02.039Z,19.31
2018-06-05T01:57:42.248Z,19.31
2018-06-05T02:00:20.493Z,19.29
2018-06-05T02:03:00.160Z,19.21
2018-06-05T02:05:38.396Z,19.11
2018-06-05T02:08:16.692Z,18.99
2018-06-05T02:10:57.393Z,18.91
2018-06-05T02:13:35.798Z,18.78
2018-06-05T02:16:15.469Z,18.75
2018-06-05T02:18:54.316Z,18.70
2018-06-05T02:21:32.673Z,18.66
2018-06-05T02:24:11.193Z,18.61
2018-06-05T02:26:49.831Z,18.71
2018-06-05T02:29:29.372Z,18.70
2018-06-05T02:32:08.052Z,18.70
2018-06-05T02:34:46.714Z,18.70
2018-06-05T02:37:26.031Z,18.64
2018-06-05T02:40:03.892Z,18.62
2018-06-05T02:42:42.511Z,18.60
2018-06-05T02:45:21.291Z,18.61
2018-06-05T02:47:59.572Z,18.61
2018-06-05T02:50:39.135Z,18.59
2018-06-05T02:53:17.972Z,18.56
2018-06-05T02:55:56.258Z,18.55
2018-06-05T02:58:35.155Z,18.51
2018-06-05T03:01:14.296Z,18.48
2018-06-05T03:03:52.437Z,18.44
2018-06-05T04:29:55.236Z,18.86
2018-06-05T04:32:34.418Z,18.98
2018-06-05T04:35:16.556Z,19.03
2018-06-05T04:37:55.993Z,19.15
2018-06-05T04:40:37.353Z,19.26
2018-06-05T04:43:14.372Z,19.30
2018-06-05T04:45:53.457Z,19.35
2018-06-05T04:48:31.014Z,19.39
2018-06-05T04:51:14.253Z,19.48
2018-06-05T04:53:58.054Z,19.55
2018-06-05T04:56:37.776Z,19.63
2018-06-05T04:59:18.030Z,19.68
2018-06-05T05:02:00.276Z,19.77
2018-06-05T05:04:37.913Z,19.87
2018-06-05T05:07:18.291Z,19.96
2018-06-05T05:09:59.196Z,20.07
2018-06-05T05:12:37.973Z,20.16
2018-06-05T05:15:17.196Z,20.25
2018-06-05T05:18:00.759Z,20.31
2018-06-05T05:20:43.275Z,20.35
2018-06-05T05:23:25.550Z,20.38
2018-06-05T05:26:05.113Z,20.42
2018-06-05T05:28:54.737Z,20.47
2018-06-05T05:31:35.256Z,20.52
2018-06-05T05:34:12.831Z,20.60
2018-06-05T05:36:55.233Z,20.70
2018-06-05T05:39:37.114Z,20.80
2018-06-05T05:42:18.816Z,20.87
2018-06-05T05:44:59.915Z,20.92
2018-06-05T05:47:43.212Z,20.99
2018-06-05T05:50:23.769Z,21.08
2018-06-05T05:53:06.416Z,21.17
2018-06-05T05:55:45.013Z,21.27
2018-06-05T05:58:26.154Z,21.34
2018-06-05T06:01:06.313Z,21.46
2018-06-05T06:03:43.818Z,21.61
2018-06-05T06:06:25.091Z,21.78
2018-06-05T06:09:04.017Z,21.95
2018-06-05T06:11:48.071Z,22.05
2018-06-05T06:14:33.123Z,22.10
2018-06-05T06:17:22.472Z,22.15
2018-06-05T06:20:05.655Z,22.25
2018-06-05T06:22:43.990Z,22.35
2018-06-05T06:25:27.895Z,22.52
2018-06-05T06:28:07.359Z,22.80
2018-06-05T06:30:50.456Z,23.20
2018-06-05T06:33:30.552Z,23.50
2018-06-05T06:36:11.895Z,23.72
2018-06-05T06:38:57.178Z,23.86
2018-06-05T06:41:55.032Z,23.92
2018-06-05T06:44:32.415Z,23.89
2018-06-05T06:47:18.309Z,23.91
2018-06-05T06:50:06.161Z,23.98
2018-06-05T06:52:48.335Z,24.10
2018-06-05T06:55:30.156Z,24.33
2018-06-05T06:58:15.160Z,24.73
2018-06-05T07:00:55.809Z,25.22
2018-06-05T07:03:34.269Z,25.75
2018-06-05T07:06:23.860Z,26.23
2018-06-05T07:09:01.570Z,26.73
2018-06-05T07:11:39.394Z,27.23
2018-06-05T07:14:19.012Z,27.51
2018-06-05T07:17:00.339Z,27.75
2018-06-05T07:19:47.940Z,27.95
2018-06-05T07:22:30.214Z,28.44
2018-06-05T07:25:13.196Z,28.99
2018-06-05T07:27:55.268Z,29.58
2018-06-05T07:30:36.397Z,30.05
2018-06-05T07:33:28.071Z,30.48
2018-06-05T07:36:08.537Z,30.82
2018-06-05T07:38:51.756Z,31.21
2018-06-05T07:41:40.074Z,31.42
2018-06-05T07:44:19.259Z,31.65
2018-06-05T07:46:59.139Z,31.85
2018-06-05T07:49:37.537Z,32.03
2018-06-05T07:52:16.615Z,32.11
2018-06-05T07:54:55.431Z,32.14
2018-06-05T07:57:35.197Z,32.21
2018-06-05T08:00:14.778Z,32.32
2018-06-05T08:02:55.080Z,32.38
2018-06-05T08:05:37.117Z,32.33
2018-06-05T08:08:19.177Z,32.33
2018-06-05T08:11:01.196Z,32.36
2018-06-05T08:13:40.239Z,32.43
2018-06-05T08:16:19.552Z,32.53
2018-06-05T08:18:58.313Z,32.55
2018-06-05T08:21:36.494Z,32.59
2018-06-05T08:24:18.055Z,32.60
2018-06-05T08:27:02.440Z,32.55
2018-06-05T08:29:43.935Z,32.47
2018-06-05T08:32:29.294Z,32.48
2018-06-05T08:35:11.554Z,32.47
2018-06-05T08:37:52.383Z,32.44
2018-06-05T08:40:30.590Z,32.43
2018-06-05T08:43:13.112Z,32.49
2018-06-05T08:45:52.238Z,32.56
2018-06-05T08:48:31.474Z,32.60
2018-06-05T08:51:13.437Z,32.55
2018-06-05T08:53:55.898Z,32.50
2018-06-05T08:56:48.734Z,32.37
2018-06-05T08:59:27.893Z,32.46
2018-06-05T09:02:08.434Z,32.43
2018-06-05T09:04:52.599Z,32.31
2018-06-05T09:07:32.534Z,32.31
2018-06-05T09:10:12.673Z,32.33
2018-06-05T09:42:41.396Z,31.98
2018-06-05T09:45:27.337Z,32.09
2018-06-05T09:48:06.951Z,32.10
2018-06-05T09:50:50.556Z,32.14
2018-06-05T09:53:31.009Z,32.25
2018-06-05T10:49:37.072Z,31.58
2018-06-05T10:52:15.936Z,31.82
2018-06-05T10:55:00.033Z,32.09
2018-06-05T10:57:37.513Z,32.38
2018-06-05T11:00:15.053Z,32.70
2018-06-05T11:02:54.039Z,32.87
2018-06-05T11:05:34.675Z,33.06
2018-06-05T11:08:14.195Z,33.20
2018-06-05T11:10:54.313Z,33.28
2018-06-05T11:13:38.874Z,33.31
2018-06-05T11:16:23.212Z,33.40
2018-06-05T11:19:04.451Z,33.38
2018-06-05T11:21:44.108Z,33.39
2018-06-05T11:24:25.917Z,33.59
2018-06-05T11:27:09.136Z,33.77
2018-06-05T11:29:49.932Z,33.78
2018-06-05T11:32:29.709Z,33.78
2018-06-05T11:35:10.017Z,33.80
2018-06-05T11:37:50.950Z,33.84
2018-06-05T11:40:33.071Z,33.85
2018-06-05T11:43:13.916Z,33.95
2018-06-05T11:45:54.157Z,34.12
2018-06-05T11:48:36.275Z,34.17
2018-06-05T11:51:21.799Z,34.27
2018-06-05T11:54:06.525Z,34.41
2018-06-05T11:56:49.372Z,34.50
2018-06-05T11:59:32.861Z,34.61
2018-06-05T12:02:16.333Z,34.77
2018-06-05T12:05:05.023Z,34.85
2018-06-05T12:07:56.029Z,34.84
2018-06-05T12:10:43.980Z,34.93
2018-06-05T12:13:23.192Z,34.95
2018-06-05T12:16:07.362Z,35.04
2018-06-05T12:18:54.332Z,35.07
2018-06-05T12:21:38.752Z,34.96
2018-06-05T12:24:17.733Z,34.83
2018-06-05T12:27:03.742Z,34.74
2018-06-05T12:29:48.475Z,34.72
2018-06-05T12:32:27.397Z,34.72
2018-06-05T12:35:07.785Z,34.73
2018-06-05T12:37:49.332Z,34.68
2018-06-05T12:40:33.177Z,34.45
2018-06-05T12:43:14.993Z,33.84
2018-06-05T12:46:00.135Z,33.58
2018-06-05T12:48:43.834Z,33.74
2018-06-05T12:51:22.734Z,33.90
2018-06-05T12:54:01.842Z,34.14
2018-06-05T12:56:45.909Z,34.33
2018-06-05T12:59:25.536Z,34.41
2018-06-05T13:02:04.194Z,34.45
2018-06-05T13:04:49.959Z,34.47
2018-06-05T13:07:31.142Z,34.41
2018-06-05T13:10:09.793Z,34.46
2018-06-05T13:12:57.189Z,34.58
2018-06-05T13:15:39.131Z,34.72
2018-06-05T14:47:32.854Z,34.85
2018-06-05T14:50:22.865Z,34.82
2018-06-05T14:53:02.718Z,34.73
2018-06-05T14:55:44.273Z,34.65
2018-06-05T14:58:32.057Z,34.59
2018-06-05T15:01:12.937Z,34.57
2018-06-05T15:03:53.592Z,34.54
2018-06-05T15:06:37.072Z,34.49
2018-06-05T15:09:21.071Z,34.46
2018-06-05T15:12:01.237Z,34.34
2018-06-05T15:14:44.591Z,34.21
2018-06-05T15:17:30.593Z,34.07
2018-06-05T15:20:23.876Z,34.02
2018-06-05T15:23:04.461Z,33.95
2018-06-05T15:25:48.677Z,33.87
2018-06-05T15:28:27.796Z,33.85
2018-06-05T15:31:08.698Z,33.87
2018-06-05T15:33:50.506Z,33.79
2018-06-05T15:36:51.492Z,33.78
2018-06-05T15:39:35.854Z,33.73
2018-06-05T15:42:15.513Z,33.68
2018-06-05T15:44:55.374Z,33.63
2018-06-05T15:47:34.173Z,33.62
2018-06-05T15:50:18.355Z,33.59
2018-06-05T15:53:02.448Z,33.59
2018-06-05T15:55:41.862Z,33.60
2018-06-05T15:58:26.171Z,33.56
2018-06-05T16:01:03.293Z,33.51
2018-06-05T16:03:42.774Z,33.47
2018-06-05T16:06:23.015Z,33.42
2018-06-05T16:09:03.376Z,33.32
2018-06-05T16:11:44.138Z,33.23
2018-06-05T16:14:26.077Z,33.13
2018-06-05T16:17:04.510Z,33.10
2018-06-05T16:19:44.992Z,33.01
2018-06-05T16:22:22.783Z,32.87
2018-06-05T16:25:05.797Z,32.78
2018-06-05T16:27:51.770Z,32.67
2018-06-05T16:30:40.718Z,32.58
2018-06-05T16:33:24.278Z,32.59
2018-06-05T16:36:04.954Z,32.51
2018-06-05T16:38:46.236Z,32.34
2018-06-05T16:41:26.375Z,32.16
2018-06-05T16:44:06.532Z,32.03
2018-06-05T16:46:44.334Z,31.94
2018-06-05T16:49:22.258Z,31.82
2018-06-05T16:52:03.190Z,31.72
2018-06-05T16:54:41.777Z,31.64
2018-06-05T16:57:23.614Z,31.52
2018-06-05T17:00:04.252Z,31.45
2018-06-05T17:02:46.219Z,31.29
2018-06-05T17:05:33.620Z,31.18
2018-06-05T17:08:14.155Z,31.05
2018-06-05T17:10:56.095Z,30.92
2018-06-05T17:13:35.738Z,30.83
2018-06-05T17:16:14.414Z,30.73
2018-06-05T17:18:52.657Z,30.60
2018-06-05T17:21:44.765Z,30.49
2018-06-05T17:24:25.345Z,30.37
2018-06-05T17:27:09.655Z,30.21
2018-06-05T17:29:51.420Z,30.05
2018-06-05T17:32:36.925Z,29.84
2018-06-05T17:35:15.229Z,29.63
2018-06-05T17:37:55.143Z,29.46
2018-06-05T17:43:47.814Z,29.11
2018-06-05T17:49:33.917Z,28.92
2018-06-05T17:52:15.347Z,28.82
2018-06-05T17:54:59.657Z,28.70
2018-06-05T17:57:41.750Z,28.59
2018-06-05T18:00:20.583Z,28.48
2018-06-05T18:03:03.322Z,28.36
2018-06-05T18:05:56.341Z,28.31
2018-06-05T18:08:38.894Z,28.22
2018-06-05T18:11:22.442Z,28.13
2018-06-05T18:14:08.865Z,28.07
2018-06-05T18:16:49.188Z,27.97
2018-06-05T18:19:27.375Z,27.89
2018-06-05T18:27:00.520Z,27.70
2018-06-05T18:29:40.330Z,27.53
2018-06-05T18:32:19.616Z,27.46
2018-06-05T18:35:07.308Z,27.39
2018-06-05T18:40:42.397Z,27.24
2018-06-05T18:46:18.950Z,27.13
2018-06-05T18:48:58.327Z,27.10
2018-06-05T18:51:38.639Z,27.07
2018-06-05T18:54:20.195Z,27.01
2018-06-05T18:56:58.259Z,26.91
2018-06-05T18:59:36.333Z,26.82
2018-06-05T19:02:17.474Z,26.77
2018-06-05T19:05:02.237Z,26.70
2018-06-05T19:07:44.533Z,26.70
2018-06-05T19:10:23.194Z,26.66
2018-06-05T19:13:05.168Z,26.56
2018-06-05T19:15:44.596Z,26.45
2018-06-05T19:18:23.751Z,26.39
2018-06-05T19:21:08.874Z,26.35
2018-06-05T19:23:46.435Z,26.28
2018-06-05T19:26:32.770Z,26.20
2018-06-05T19:29:15.258Z,26.14
2018-06-05T19:31:58.098Z,26.10
2018-06-05T19:34:36.820Z,26.04
2018-06-05T19:37:17.791Z,25.99
2018-06-05T19:39:59.651Z,25.92
2018-06-05T19:42:43.571Z,25.86
2018-06-05T19:45:23.450Z,25.78
2018-06-05T19:48:01.493Z,25.70
2018-06-05T19:50:41.575Z,25.61
2018-06-05T19:53:23.410Z,25.52
2018-06-05T19:56:07.178Z,25.47
2018-06-05T19:58:47.379Z,25.40
2018-06-05T20:01:34.350Z,25.35
2018-06-05T20:04:14.672Z,25.26
2018-06-05T20:06:53.679Z,25.19
2018-06-05T20:09:36.112Z,25.12
2018-06-05T20:12:13.432Z,25.05
2018-06-05T20:14:57.132Z,24.96
2018-06-05T20:17:38.856Z,24.90
2018-06-05T20:20:19.898Z,24.79
2018-06-05T20:22:58.115Z,24.67
2018-06-05T20:25:41.049Z,24.57
2018-06-05T20:28:23.439Z,24.48
2018-06-05T20:31:02.859Z,24.37
2018-06-05T20:33:40.479Z,24.27
2018-06-05T20:36:21.775Z,24.18
2018-06-05T20:39:06.815Z,24.11
2018-06-05T20:41:50.832Z,24.05
2018-06-05T20:44:36.157Z,23.99
2018-06-05T20:47:17.733Z,23.94
2018-06-05T20:49:59.458Z,23.86
2018-06-05T20:52:39.154Z,23.81
2018-06-05T20:55:21.220Z,23.77
2018-06-05T20:58:00.848Z,23.75
2018-06-05T21:00:40.552Z,23.74
2018-06-05T22:33:35.881Z,21.87
2018-06-05T22:36:19.223Z,21.83
2018-06-05T22:38:57.778Z,21.80
2018-06-05T22:41:37.798Z,21.80
2018-06-05T22:44:17.819Z,21.77
2018-06-05T22:47:00.863Z,21.75
2018-06-05T22:49:41.898Z,21.73
2018-06-05T22:52:22.017Z,21.69
2018-06-05T22:55:03.321Z,21.67
2018-06-05T22:57:44.926Z,21.59
2018-06-05T23:00:44.620Z,21.54
2018-06-05T23:03:25.515Z,21.48
2018-06-05T23:06:04.482Z,21.48
2018-06-05T23:08:45.463Z,21.48
2018-06-05T23:11:24.599Z,21.46
2018-06-05T23:14:03.483Z,21.38
2018-06-05T23:16:42.502Z,21.30
